Time;durP1;ratioP1;P1;durP2;ratioP2;P2;SDS_P1;SDS_P2;PMS_P1;PMS_P2;Temp;Humidity;BMP_temperature;BMP_pressure;BME280_temperature;BME280_humidity;BME280_pressure;Samples;Min_cycle;Max_cycle;Signal;HPM_P1;HPM_P2
2022/03/23 00:03:01;;;;;;;101.10;93.57;;;;;;;8.46;100.00;102893.88;2009943;71;32754;-79
2022/03/23 00:08:44;;;;;;;99.27;91.53;;;;;;;8.40;100.00;102903.06;2007725;71;32837;-78
2022/03/23 00:14:29;;;;;;;100.00;91.50;;;;;;;8.36;100.00;102896.27;2006081;71;32827;-76
2022/03/23 00:20:15;;;;;;;100.80;92.43;;;;;;;8.20;100.00;102901.22;2000671;71;32983;-78
2022/03/23 00:26:00;;;;;;;95.80;87.87;;;;;;;8.12;100.00;102898.70;2014843;71;32837;-73
2022/03/23 00:31:47;;;;;;;97.57;89.30;;;;;;;8.15;100.00;102898.25;2053426;69;33218;-83
2022/03/23 00:37:32;;;;;;;102.00;93.43;;;;;;;7.98;100.00;102905.34;2016801;71;33384;-77
2022/03/23 00:43:18;;;;;;;103.73;94.73;;;;;;;7.97;100.00;102906.93;2001036;71;32821;-77
2022/03/23 00:49:02;;;;;;;105.50;95.93;;;;;;;7.95;100.00;102922.92;2006105;70;32911;-78
2022/03/23 00:54:46;;;;;;;101.67;92.37;;;;;;;8.57;100.00;102916.71;2012979;71;32838;-77
2022/03/23 01:00:32;;;;;;;104.50;95.03;;;;;;;8.28;100.00;102910.33;2015175;71;32918;-82
2022/03/23 01:06:17;;;;;;;98.37;89.50;;;;;;;7.79;100.00;102911.77;2013332;71;32846;-74
2022/03/23 01:12:02;;;;;;;94.87;86.57;;;;;;;7.56;100.00;102923.32;2005571;71;32850;-74
2022/03/23 01:17:46;;;;;;;102.57;93.67;;;;;;;7.56;100.00;102916.94;2007946;71;32812;-74
2022/03/23 01:23:31;;;;;;;97.33;88.90;;;;;;;7.51;100.00;102922.25;1996980;70;33236;-75
2022/03/23 01:29:16;;;;;;;100.77;92.07;;;;;;;7.42;100.00;102919.39;1998432;71;32838;-78
2022/03/23 01:35:00;;;;;;;94.83;86.40;;;;;;;7.49;100.00;102911.40;2007600;71;32918;-73
2022/03/23 01:40:46;;;;;;;100.20;91.67;;;;;;;7.36;100.00;102909.20;2000694;71;32779;-77
2022/03/23 03:07:05;;;;;;;113.23;103.67;;;;;;;6.38;100.00;102914.36;1959227;71;33657;-72
2022/03/23 03:12:49;;;;;;;97.37;89.27;;;;;;;6.34;100.00;102912.22;1911006;73;33144;-77
2022/03/23 03:18:35;;;;;;;100.77;92.57;;;;;;;6.30;100.00;102915.92;1920983;73;39597;-75
2022/03/23 03:24:21;;;;;;;96.17;88.33;;;;;;;6.51;100.00;102908.55;1861040;76;86292;-73
2022/03/23 03:30:06;;;;;;;93.80;85.87;;;;;;;6.33;100.00;102912.73;1924804;73;86442;-75
2022/03/23 03:35:51;;;;;;;95.97;87.87;;;;;;;6.26;100.00;102910.50;1898583;73;39569;-77
2022/03/23 03:41:36;;;;;;;85.03;78.13;;;;;;;6.21;100.00;102914.39;1836315;75;86362;-74
2022/03/23 03:47:21;;;;;;;85.27;78.37;;;;;;;5.96;100.00;102914.60;1870826;75;86390;-73
2022/03/23 03:53:07;;;;;;;88.70;81.90;;;;;;;6.00;100.00;102927.45;1924188;73;86532;-74
2022/03/23 03:58:50;;;;;;;92.50;85.27;;;;;;;5.77;100.00;102929.97;1903133;74;39631;-74
2022/03/23 04:04:34;;;;;;;82.97;76.67;;;;;;;5.43;100.00;102932.70;1783091;78;86343;-75
2022/03/23 04:10:19;;;;;;;78.43;72.77;;;;;;;5.28;100.00;102928.65;1811876;77;86299;-72
2022/03/23 04:16:04;;;;;;;84.63;78.07;;;;;;;5.14;100.00;102933.70;1914598;73;86019;-72
2022/03/23 04:21:48;;;;;;;80.20;74.00;;;;;;;5.28;100.00;102928.65;1911236;73;39887;-75
2022/03/23 04:27:34;;;;;;;78.90;73.03;;;;;;;5.18;100.00;102935.02;1860503;75;85668;-72
2022/03/23 04:33:18;;;;;;;80.90;74.90;;;;;;;5.30;100.00;102935.34;1840081;76;85723;-74
2022/03/23 04:39:02;;;;;;;85.67;79.00;;;;;;;5.57;100.00;102938.61;1905013;72;86257;-74
2022/03/23 04:44:47;;;;;;;87.30;80.50;;;;;;;5.46;100.00;102938.66;1893688;74;39629;-72
2022/03/23 04:50:31;;;;;;;89.40;82.50;;;;;;;5.57;100.00;102939.14;1849818;76;86569;-83
2022/03/23 04:56:18;;;;;;;89.70;82.57;;;;;;;5.65;100.00;102944.52;1833857;76;85142;-77
2022/03/23 05:02:00;;;;;;;90.67;83.33;;;;;;;5.48;100.00;102954.45;1907722;72;86705;-76
2022/03/23 05:07:47;;;;;;;86.33;79.73;;;;;;;5.49;100.00;102951.17;1806121;78;85317;-76
2022/03/23 05:13:29;;;;;;;87.30;80.57;;;;;;;5.33;100.00;102953.70;1807443;78;86303;-75
2022/03/23 05:19:14;;;;;;;82.43;75.83;;;;;;;4.98;100.00;102953.27;1872362;75;86266;-77
2022/03/23 05:24:58;;;;;;;81.20;75.10;;;;;;;4.77;100.00;102956.02;1911416;73;39558;-74
2022/03/23 05:30:42;;;;;;;84.13;77.50;;;;;;;4.41;100.00;102963.75;1838500;75;85742;-75
2022/03/23 05:36:26;;;;;;;75.00;69.13;;;;;;;4.32;100.00;102961.33;1881822;75;86314;-75
2022/03/23 05:42:14;;;;;;;77.60;71.77;;;;;;;4.45;100.00;102967.00;1830664;76;86548;-82
2022/03/23 05:47:59;;;;;;;82.53;75.87;;;;;;;4.58;100.00;102973.48;1912374;73;85641;-74
2022/03/23 05:53:43;;;;;;;81.10;74.80;;;;;;;4.60;100.00;102976.05;1805925;78;86442;-74
2022/03/23 05:59:28;;;;;;;83.90;77.00;;;;;;;4.66;100.00;102988.20;1820098;78;86428;-72
2022/03/23 06:05:13;;;;;;;83.53;76.37;;;;;;;4.74;100.00;102990.31;1872568;75;86337;-72
2022/03/23 06:10:57;;;;;;;93.57;84.73;;;;;;;4.72;100.00;102988.27;1855778;73;39983;-72
2022/03/23 06:16:41;;;;;;;88.60;80.37;;;;;;;4.73;100.00;103000.98;1820117;76;86600;-77
2022/03/23 06:22:25;;;;;;;91.57;82.77;;;;;;;4.71;100.00;102993.43;1864801;76;86630;-73
2022/03/23 06:28:10;;;;;;;94.47;85.63;;;;;;;4.99;100.00;102994.40;1873812;75;85892;-72
2022/03/23 06:33:54;;;;;;;102.60;92.63;;;;;;;5.24;100.00;103000.36;1910314;73;39829;-76
2022/03/23 06:39:38;;;;;;;104.73;94.00;;;;;;;5.44;100.00;103000.00;1829398;76;86613;-74
2022/03/23 06:45:23;;;;;;;110.03;97.97;;;;;;;5.50;100.00;103006.64;1872292;74;86652;-73
2022/03/23 06:51:07;;;;;;;111.03;99.87;;;;;;;5.62;100.00;103010.55;1856096;76;86290;-76
2022/03/23 06:56:52;;;;;;;107.47;96.77;;;;;;;5.68;100.00;103014.42;1901180;74;39388;-76
2022/03/23 07:02:34;;;;;;;107.77;97.17;;;;;;;5.80;100.00;103019.70;1791838;77;85972;-75
2022/03/23 07:14:22;;;;;;;115.60;103.00;;;;;;;6.38;100.00;103032.20;1860755;75;86431;-75
2022/03/23 07:20:08;;;;;;;108.03;96.80;;;;;;;6.35;100.00;103036.76;1909187;73;86261;-76
2022/03/23 07:25:53;;;;;;;94.13;85.07;;;;;;;6.49;100.00;103039.92;1890815;74;39775;-77
2022/03/23 07:31:38;;;;;;;93.40;85.03;;;;;;;6.46;100.00;103041.69;1870749;76;86355;-78
2022/03/23 07:37:22;;;;;;;97.67;88.37;;;;;;;6.71;100.00;103040.14;1866119;75;86713;-73
2022/03/23 07:43:07;;;;;;;111.40;99.73;;;;;;;6.99;100.00;103046.91;1945840;73;86442;-72
2022/03/23 07:48:51;;;;;;;115.80;103.37;;;;;;;7.42;100.00;103041.05;1907506;74;39731;-76
2022/03/23 07:54:35;;;;;;;125.20;111.50;;;;;;;7.71;100.00;103051.70;1827639;76;86248;-82
2022/03/23 08:00:19;;;;;;;126.23;109.50;;;;;;;8.10;100.00;103046.15;1818330;77;86091;-73
2022/03/23 08:06:03;;;;;;;131.23;112.07;;;;;;;8.60;100.00;103045.11;1947151;72;86595;-75
2022/03/23 08:11:47;;;;;;;143.93;119.43;;;;;;;8.94;100.00;103036.97;1913834;74;40398;-75
2022/03/23 08:17:31;;;;;;;141.43;123.70;;;;;;;9.33;100.00;103038.09;1854228;76;86364;-76
2022/03/23 08:23:17;;;;;;;146.67;128.77;;;;;;;9.69;100.00;103037.94;1861655;75;86700;-75
2022/03/23 08:28:59;;;;;;;142.60;124.03;;;;;;;10.06;100.00;103036.42;1903803;72;85562;-75
2022/03/23 08:34:44;;;;;;;143.03;126.30;;;;;;;10.42;100.00;103032.88;1773863;79;85967;-76
2022/03/23 08:40:29;;;;;;;140.50;125.30;;;;;;;10.78;100.00;103030.59;1803818;78;86034;-71
2022/03/23 08:46:14;;;;;;;137.50;122.50;;;;;;;11.13;100.00;103041.04;1870294;75;86666;-77
2022/03/23 08:51:58;;;;;;;138.43;124.43;;;;;;;11.50;100.00;103032.91;1907830;74;39510;-78
2022/03/23 08:57:43;;;;;;;134.53;121.03;;;;;;;11.70;100.00;103030.64;1806076;78;86815;-75
2022/03/23 09:03:29;;;;;;;130.60;118.13;;;;;;;12.08;100.00;103036.33;1775385;78;86176;-72
2022/03/23 09:09:13;;;;;;;132.23;119.43;;;;;;;12.24;100.00;103025.29;1855834;76;86309;-71
2022/03/23 09:14:55;;;;;;;131.50;119.00;;;;;;;12.48;100.00;103028.91;1909664;74;39609;-70
2022/03/23 09:20:40;;;;;;;129.17;117.17;;;;;;;12.74;100.00;103028.92;1858430;76;85920;-71
2022/03/23 09:26:24;;;;;;;127.40;115.67;;;;;;;13.04;100.00;103021.17;1864188;75;85326;-78
2022/03/23 09:32:11;;;;;;;125.77;114.37;;;;;;;13.18;100.00;103024.52;1800193;77;86292;-71
2022/03/23 09:37:56;;;;;;;122.50;111.07;;;;;;;13.27;100.00;103030.00;1910712;74;39772;-72
2022/03/23 09:43:41;;;;;;;125.13;114.10;;;;;;;13.34;100.00;103020.94;1800220;77;86679;-71
2022/03/23 09:49:26;;;;;;;115.57;105.27;;;;;;;13.54;100.00;103017.11;1870417;74;86398;-70
2022/03/23 09:55:11;;;;;;;105.60;96.13;;;;;;;13.96;100.00;103020.88;1874834;74;86188;-72
2022/03/23 10:00:54;;;;;;;96.77;87.83;;;;;;;14.07;100.00;103029.73;1893548;73;39850;-74
2022/03/23 10:04:01;;;;;;;103.20;93.63;;;;;;;14.04;100.00;103035.81;1843986;76;936937;-72
2022/03/23 10:10:50;;;;;;;88.67;80.47;;;;;;;14.28;100.00;103032.28;1871658;74;86290;-71
2022/03/23 10:13:56;;;;;;;88.73;80.33;;;;;;;14.35;100.00;103039.41;1823665;76;936915;-74
2022/03/23 10:20:09;;;;;;;89.80;81.00;;;;;;;14.64;100.00;103021.90;1806793;77;86313;-73
2022/03/23 10:26:12;;;;;;;74.43;67.00;;;;;;;14.76;100.00;103025.41;1912578;74;86499;-73
2022/03/23 10:32:06;;;;;;;70.90;63.57;;;;;;;14.94;100.00;103028.43;1901633;74;39581;-69
2022/03/23 10:37:57;;;;;;;66.40;59.30;;;;;;;14.72;100.00;103022.02;1898685;74;39755;-72
2022/03/23 10:43:42;;;;;;;57.57;51.27;;;;;;;15.13;100.00;103018.59;1837995;75;86637;-70
2022/03/23 10:49:35;;;;;;;54.30;48.07;;;;;;;15.33;100.00;103016.00;1880565;75;86421;-68
2022/03/23 10:55:32;;;;;;;53.40;47.57;;;;;;;15.53;100.00;103010.35;1795491;79;86428;-68
2022/03/23 11:02:01;;;;;;;50.13;41.33;;;;;;;15.70;100.00;102997.05;1910079;74;39676;-70
2022/03/23 11:07:46;;;;;;;46.17;38.53;;;;;;;15.88;100.00;103004.47;1907549;74;39570;-69
2022/03/23 11:19:35;;;;;;;42.00;35.83;;;;;;;16.15;100.00;102993.17;1830857;75;86465;-68
2022/03/23 11:25:21;;;;;;;35.53;31.13;;;;;;;16.47;100.00;102986.63;1875004;75;85930;-68
2022/03/23 11:31:08;;;;;;;37.50;32.27;;;;;;;16.43;100.00;102984.91;1910419;74;86701;-68
2022/03/23 11:33:40;;;;;;;37.67;32.47;;;;;;;16.59;100.00;102985.32;1843322;74;938835;-68
2022/03/23 11:39:26;;;;;;;31.07;27.90;;;;;;;16.57;100.00;102977.72;1875667;74;86469;-69
2022/03/23 11:45:14;;;;;;;33.63;30.00;;;;;;;16.97;100.00;102970.56;1861067;76;86581;-68
2022/03/23 11:51:13;;;;;;;34.23;29.73;;;;;;;16.90;100.00;102974.20;1925227;73;86483;-68
2022/03/23 11:57:06;;;;;;;26.80;24.13;;;;;;;16.89;100.00;102967.75;1889555;74;85813;-69
2022/03/23 12:02:50;;;;;;;31.47;28.17;;;;;;;17.25;100.00;102957.41;1898793;74;39835;-68
2022/03/23 12:08:50;;;;;;;31.90;28.80;;;;;;;16.81;100.00;102955.66;1829312;77;86603;-68
2022/03/23 12:11:56;;;;;;;29.13;26.40;;;;;;;16.82;100.00;102958.16;1790095;77;936867;-67
2022/03/23 12:17:41;;;;;;;24.17;21.87;;;;;;;16.88;100.00;102949.20;1841893;77;86688;-70
2022/03/23 12:23:32;;;;;;;28.03;25.10;;;;;;;17.08;100.00;102953.45;1865401;75;86209;-69
2022/03/23 12:29:26;;;;;;;30.23;27.23;;;;;;;16.74;100.00;102942.42;1887862;74;86412;-69
2022/03/23 12:35:29;;;;;;;22.43;19.87;;;;;;;17.31;100.00;102931.02;1813590;77;86426;-68
2022/03/23 12:41:14;;;;;;;24.13;21.83;;;;;;;17.50;100.00;102921.48;1871569;75;86496;-71
2022/03/23 12:47:06;;;;;;;31.53;28.63;;;;;;;17.52;100.00;102919.22;1919025;72;86216;-69
2022/03/23 12:59:16;;;;;;;19.90;18.13;;;;;;;17.69;98.50;102905.74;1920816;73;86380;-71
2022/03/23 13:05:05;;;;;;;20.17;18.50;;;;;;;17.93;100.00;102899.78;1917438;74;86331;-71
2022/03/23 13:10:58;;;;;;;20.83;18.93;;;;;;;17.82;100.00;102891.09;1862749;73;39762;-72
2022/03/23 13:16:44;;;;;;;19.13;17.70;;;;;;;17.72;100.00;102890.55;1858889;76;85719;-71
2022/03/23 13:22:36;;;;;;;19.07;17.60;;;;;;;17.54;97.02;102884.66;1803120;78;86052;-71
2022/03/23 13:28:24;;;;;;;19.70;18.00;;;;;;;17.64;90.54;102875.67;1864827;76;85543;-70
2022/03/23 13:34:17;;;;;;;19.30;17.87;;;;;;;17.68;85.02;102878.75;1872115;75;86310;-69
2022/03/23 13:40:03;;;;;;;18.43;17.03;;;;;;;17.84;83.55;102872.55;1913723;74;86194;-70
2022/03/23 13:45:49;;;;;;;18.27;16.93;;;;;;;18.01;100.00;102858.41;1867211;73;39614;-70
2022/03/23 13:51:37;;;;;;;20.27;18.53;;;;;;;17.76;90.93;102852.87;1844289;77;86711;-70
2022/03/23 13:57:21;;;;;;;19.87;18.20;;;;;;;17.36;99.34;102858.55;1865297;76;86125;-70
2022/03/23 14:03:06;;;;;;;19.70;18.10;;;;;;;17.45;88.12;102865.28;1911910;72;86078;-71
2022/03/23 14:08:53;;;;;;;19.30;17.80;;;;;;;17.25;84.35;102861.90;1903376;74;49142;-70
2022/03/23 14:14:40;;;;;;;19.53;17.93;;;;;;;17.14;99.95;102854.61;1823150;76;85561;-73
2022/03/23 14:20:26;;;;;;;19.80;18.13;;;;;;;17.23;100.00;102847.31;1869551;75;86618;-70
2022/03/23 14:26:32;;;;;;;21.03;19.33;;;;;;;16.91;97.33;102848.98;1863650;75;85503;-70
2022/03/23 14:32:21;;;;;;;20.70;19.07;;;;;;;16.95;100.00;102849.25;1818063;77;86305;-71
2022/03/23 14:38:10;;;;;;;21.30;19.40;;;;;;;16.96;100.00;102851.80;1912092;73;86801;-71
2022/03/23 14:44:03;;;;;;;22.10;20.17;;;;;;;17.27;98.86;102840.85;1925709;73;86658;-70
2022/03/23 14:49:48;;;;;;;21.63;19.80;;;;;;;17.38;100.00;102836.61;1896056;74;40194;-70
2022/03/23 14:55:33;;;;;;;21.93;19.87;;;;;;;17.44;90.12;102827.06;1924748;73;86282;-69
2022/03/23 15:01:16;;;;;;;20.47;18.83;;;;;;;17.52;88.95;102823.67;1814918;77;86247;-68
2022/03/23 15:19:06;;;;;;;20.73;19.03;;;;;;;17.36;92.02;102808.81;1919298;73;85373;-69
2022/03/23 15:24:51;;;;;;;19.70;17.97;;;;;;;17.26;87.29;102813.88;1911878;74;39726;-70
2022/03/23 15:30:35;;;;;;;20.20;18.47;;;;;;;17.07;95.36;102816.97;1801238;78;86623;-70
2022/03/23 15:36:22;;;;;;;21.13;19.43;;;;;;;16.87;99.19;102808.55;1813510;78;86311;-70
2022/03/23 15:42:08;;;;;;;19.10;17.80;;;;;;;16.84;96.49;102804.91;1845080;76;85358;-72
2022/03/23 15:47:52;;;;;;;20.83;19.13;;;;;;;16.95;99.96;102804.33;1903310;74;39647;-69
2022/03/23 15:53:40;;;;;;;21.37;19.60;;;;;;;16.98;100.00;102791.16;1790961;78;85429;-70
2022/03/23 15:59:21;;;;;;;17.83;16.43;;;;;;;16.92;100.00;102796.48;1865809;74;86464;-70
2022/03/23 16:05:07;;;;;;;21.67;19.80;;;;;;;16.95;93.85;102800.97;1948207;72;86041;-69
2022/03/23 16:10:52;;;;;;;19.60;18.20;;;;;;;17.20;96.33;102801.55;1903200;74;39830;-68
2022/03/23 16:16:38;;;;;;;22.03;20.37;;;;;;;17.39;100.00;102791.38;1874642;76;86481;-70
2022/03/23 16:22:23;;;;;;;19.10;17.80;;;;;;;17.26;87.61;102792.81;1874787;74;86720;-69
2022/03/23 16:28:08;;;;;;;19.90;18.27;;;;;;;17.18;91.80;102800.41;1805180;77;86412;-72
2022/03/23 16:33:52;;;;;;;20.60;19.00;;;;;;;17.35;87.27;102790.27;1911497;74;39718;-71
2022/03/23 16:39:37;;;;;;;19.67;18.13;;;;;;;17.39;86.07;102789.13;1869313;76;85219;-72
2022/03/23 16:45:22;;;;;;;20.70;19.30;;;;;;;17.41;91.94;102792.52;1867750;75;86691;-70
2022/03/23 16:51:07;;;;;;;20.37;18.93;;;;;;;17.26;87.39;102789.16;1873811;75;86240;-71
2022/03/23 16:56:51;;;;;;;20.10;18.40;;;;;;;17.27;97.95;102786.63;1917819;72;39689;-67
2022/03/23 17:02:37;;;;;;;19.30;17.80;;;;;;;17.15;95.75;102792.55;1819923;75;86762;-69
2022/03/23 17:14:24;;;;;;;21.33;19.70;;;;;;;16.93;97.52;102803.23;1872518;74;86357;-70
2022/03/23 17:20:10;;;;;;;21.13;19.23;;;;;;;16.92;93.51;102801.54;1858457;76;86255;-70
2022/03/23 17:25:57;;;;;;;19.77;18.30;;;;;;;16.97;92.67;102795.92;1897842;74;40091;-69
2022/03/23 17:31:41;;;;;;;20.40;18.90;;;;;;;17.01;91.50;102800.41;1814953;76;86302;-71
2022/03/23 17:37:27;;;;;;;20.87;19.13;;;;;;;16.78;97.82;102806.02;1866808;75;86343;-71
2022/03/23 17:43:13;;;;;;;29.67;26.67;;;;;;;16.69;98.57;102812.74;1859770;76;86632;-73
2022/03/23 17:48:58;;;;;;;287.53;201.83;;;;;;;16.59;100.00;102808.53;1810551;78;86438;-68
2022/03/23 17:54:43;;;;;;;174.10;129.30;;;;;;;16.56;100.00;102815.23;1873780;75;85994;-71
2022/03/23 18:00:27;;;;;;;87.67;67.53;;;;;;;16.21;100.00;102826.64;1818033;78;86173;-70
2022/03/23 18:06:11;;;;;;;35.67;32.13;;;;;;;15.82;100.00;102832.36;1803142;77;86592;-69
2022/03/23 18:11:55;;;;;;;37.03;33.13;;;;;;;15.55;100.00;102833.87;1909917;73;39480;-70
2022/03/23 18:17:40;;;;;;;36.47;32.60;;;;;;;15.55;100.00;102841.43;1804455;77;86285;-68
2022/03/23 18:23:25;;;;;;;26.30;23.43;;;;;;;14.98;100.00;102851.87;1876523;75;86551;-68
2022/03/23 18:29:10;;;;;;;23.93;21.50;;;;;;;14.49;100.00;102853.91;1850630;76;86416;-71
2022/03/23 18:34:55;;;;;;;22.10;20.30;;;;;;;14.34;100.00;102859.27;1867494;73;39594;-68
2022/03/23 18:40:40;;;;;;;29.23;26.17;;;;;;;14.52;100.00;102866.80;1869444;75;86250;-70
2022/03/23 18:46:26;;;;;;;22.97;20.97;;;;;;;14.02;100.00;102880.98;1872654;74;86749;-69
2022/03/23 18:52:12;;;;;;;20.90;19.00;;;;;;;13.95;100.00;102884.50;1797930;77;86649;-67
2022/03/23 18:57:57;;;;;;;25.43;21.73;;;;;;;13.68;100.00;102890.55;1862896;73;40196;-68
2022/03/23 19:03:42;;;;;;;22.53;20.53;;;;;;;13.39;100.00;102915.50;1789611;78;86706;-66
2022/03/23 19:09:28;;;;;;;27.93;23.53;;;;;;;13.11;100.00;102913.06;1807133;78;85466;-80
2022/03/23 19:15:13;;;;;;;23.17;20.93;;;;;;;12.86;100.00;102920.94;1807865;77;86002;-67
2022/03/23 19:20:59;;;;;;;21.87;20.17;;;;;;;12.75;100.00;102923.21;1805049;78;85682;-69
2022/03/23 19:26:43;;;;;;;24.73;22.50;;;;;;;12.54;100.00;102940.09;1820791;78;86681;-73
2022/03/23 19:32:28;;;;;;;23.73;21.43;;;;;;;12.51;100.00;102946.72;1807774;78;86133;-73
2022/03/23 19:38:12;;;;;;;27.53;24.73;;;;;;;12.65;100.00;102946.73;1807475;77;86413;-74
2022/03/23 19:43:57;;;;;;;47.17;34.83;;;;;;;12.37;100.00;102950.86;1854947;73;39811;-72
2022/03/23 19:49:42;;;;;;;48.97;36.63;;;;;;;12.15;100.00;102958.48;1824186;76;86297;-71
2022/03/23 19:55:26;;;;;;;44.00;33.70;;;;;;;12.12;100.00;102967.88;1866453;75;86063;-73
2022/03/23 20:01:09;;;;;;;40.10;31.20;;;;;;;11.90;100.00;102964.86;1806923;77;86372;-70
2022/03/23 20:06:53;;;;;;;31.23;27.90;;;;;;;11.83;100.00;102971.97;1866100;73;39819;-73
2022/03/23 20:12:37;;;;;;;33.27;29.80;;;;;;;11.54;100.00;102978.45;1829409;77;86305;-70
2022/03/23 20:18:23;;;;;;;45.50;36.10;;;;;;;11.72;100.00;102983.92;1874907;75;85581;-68
2022/03/23 20:24:09;;;;;;;36.97;33.03;;;;;;;11.34;100.00;102985.72;1800190;77;86374;-70
2022/03/23 20:29:53;;;;;;;35.47;32.47;;;;;;;10.82;100.00;102983.74;1912235;74;39689;-71
2022/03/23 20:35:38;;;;;;;37.20;33.50;;;;;;;10.75;100.00;102992.69;1828790;75;86491;-71
2022/03/23 20:41:21;;;;;;;35.03;31.43;;;;;;;10.77;100.00;102996.10;1866786;76;85285;-74
2022/03/23 20:47:06;;;;;;;35.57;32.20;;;;;;;10.57;100.00;103003.28;1921477;74;86437;-73
2022/03/23 20:52:50;;;;;;;36.70;33.37;;;;;;;10.59;100.00;103012.80;1912324;74;39758;-72
2022/03/23 20:58:32;;;;;;;37.97;34.57;;;;;;;10.26;100.00;103008.48;1839611;77;85050;-72
2022/03/23 21:04:16;;;;;;;38.27;34.87;;;;;;;10.44;100.00;103019.58;1829653;77;85352;-72
2022/03/23 21:10:00;;;;;;;39.87;36.37;;;;;;;10.03;100.00;103014.67;1944353;72;86414;-71
2022/03/23 21:15:47;;;;;;;41.87;38.40;;;;;;;9.59;100.00;103025.41;1856101;76;85970;-72
2022/03/23 21:21:31;;;;;;;41.30;37.47;;;;;;;9.46;100.00;103030.21;1854728;76;86259;-71
2022/03/23 21:27:15;;;;;;;41.17;37.67;;;;;;;9.47;100.00;103027.76;1805210;77;85676;-73
2022/03/23 21:32:59;;;;;;;43.10;39.33;;;;;;;9.48;100.00;103025.30;1918593;74;87125;-68
2022/03/23 21:38:45;;;;;;;44.80;40.90;;;;;;;9.46;100.00;103031.06;1810463;78;86471;-67
2022/03/23 21:44:32;;;;;;;43.40;39.50;;;;;;;9.35;100.00;103033.19;1857506;75;86791;-67
2022/03/23 21:50:18;;;;;;;42.50;38.73;;;;;;;9.63;100.00;103023.60;1846407;76;86191;-69
2022/03/23 21:56:03;;;;;;;42.47;38.53;;;;;;;9.67;100.00;103027.63;1940206;71;86328;-72
2022/03/23 22:01:47;;;;;;;43.53;39.83;;;;;;;9.49;100.00;103027.87;1912925;74;39536;-71
2022/03/23 22:10:45;;;;;;;51.87;47.93;;;;;;;9.39;100.00;103031.66;1911081;74;39634;-74
2022/03/23 22:16:29;;;;;;;61.70;57.53;;;;;;;8.62;100.00;103045.20;1785199;79;85576;-71
2022/03/23 22:22:15;;;;;;;60.00;55.60;;;;;;;8.58;100.00;103043.08;1868778;75;86327;-70
2022/03/23 22:27:59;;;;;;;64.27;59.57;;;;;;;8.49;100.00;103044.39;1920942;72;85565;-73
2022/03/23 22:33:46;;;;;;;72.27;67.03;;;;;;;8.52;100.00;103042.55;1872164;75;86219;-73
2022/03/23 22:39:30;;;;;;;65.80;61.20;;;;;;;8.54;100.00;103047.36;1860477;75;86280;-72
2022/03/23 22:48:21;;;;;;;64.17;59.47;;;;;;;8.19;100.00;103044.00;1894049;74;86513;-72
2022/03/23 22:50:55;;;;;;;63.90;59.13;;;;;;;8.10;100.00;103054.45;1808456;77;936758;-72
2022/03/23 22:53:25;;;;;;;65.87;60.87;;;;;;;8.16;100.00;103049.45;1818987;77;936724;-71
2022/03/23 22:59:10;;;;;;;74.43;69.03;;;;;;;8.22;100.00;103054.11;1800654;77;86380;-70
2022/03/23 23:04:54;;;;;;;77.47;71.93;;;;;;;8.31;100.00;103041.45;1913025;74;39695;-73
2022/03/23 23:10:38;;;;;;;79.30;73.90;;;;;;;8.15;100.00;103045.50;1827912;75;85489;-73
2022/03/23 23:16:22;;;;;;;81.23;75.73;;;;;;;7.95;100.00;103046.92;1862127;76;86716;-73
2022/03/23 23:22:08;;;;;;;87.83;81.83;;;;;;;7.99;100.00;103048.73;1808394;77;86181;-69
2022/03/23 23:27:55;;;;;;;88.57;82.23;;;;;;;7.96;100.00;103043.06;1912383;74;39787;-70
2022/03/23 23:33:41;;;;;;;85.40;79.57;;;;;;;7.72;100.00;103041.82;1840727;77;85528;-74
2022/03/23 23:39:26;;;;;;;85.27;79.43;;;;;;;7.55;100.00;103032.23;1787672;78;86926;-74
2022/03/23 23:45:14;;;;;;;93.53;86.57;;;;;;;7.82;100.00;103030.33;1870425;76;86661;-73
2022/03/23 23:50:59;;;;;;;91.07;85.00;;;;;;;7.49;100.00;103029.45;1906981;73;86546;-74
2022/03/23 23:56:44;;;;;;;96.43;89.43;;;;;;;7.16;100.00;103025.27;1828541;75;85387;-70
